sensor_id;sensor_type;location;lat;lon;timestamp;temperature;humidity
326;DHT22;150;52.352;14.058;2023-01-30T00:01:27;2.60;43.00
326;DHT22;150;52.352;14.058;2023-01-30T00:04:08;2.70;43.30
326;DHT22;150;52.352;14.058;2023-01-30T00:06:45;2.70;43.20
326;DHT22;150;52.352;14.058;2023-01-30T00:09:44;2.70;43.20
326;DHT22;150;52.352;14.058;2023-01-30T00:12:40;2.80;43.20
326;DHT22;150;52.352;14.058;2023-01-30T00:15:33;2.80;43.30
326;DHT22;150;52.352;14.058;2023-01-30T00:18:01;2.80;43.30
326;DHT22;150;52.352;14.058;2023-01-30T00:20:56;2.70;43.90
326;DHT22;150;52.352;14.058;2023-01-30T00:23:54;2.60;44.20
326;DHT22;150;52.352;14.058;2023-01-30T00:26:49;2.60;44.10
326;DHT22;150;52.352;14.058;2023-01-30T00:29:25;2.70;44.20
326;DHT22;150;52.352;14.058;2023-01-30T00:31:52;2.70;43.20
326;DHT22;150;52.352;14.058;2023-01-30T00:34:27;2.70;43.20
326;DHT22;150;52.352;14.058;2023-01-30T00:36:54;2.70;43.20
326;DHT22;150;52.352;14.058;2023-01-30T00:39:44;2.70;43.00
326;DHT22;150;52.352;14.058;2023-01-30T00:42:13;2.70;43.00
326;DHT22;150;52.352;14.058;2023-01-30T00:45:05;2.80;42.40
326;DHT22;150;52.352;14.058;2023-01-30T00:47:50;2.80;42.30
326;DHT22;150;52.352;14.058;2023-01-30T00:50:27;2.80;42.30
326;DHT22;150;52.352;14.058;2023-01-30T00:53:09;2.80;42.30
326;DHT22;150;52.352;14.058;2023-01-30T00:55:42;2.80;42.00
326;DHT22;150;52.352;14.058;2023-01-30T00:58:42;2.70;42.20
326;DHT22;150;52.352;14.058;2023-01-30T01:01:17;3.10;42.60
326;DHT22;150;52.352;14.058;2023-01-30T01:03:47;2.80;41.70
326;DHT22;150;52.352;14.058;2023-01-30T01:06:42;2.80;42.00
326;DHT22;150;52.352;14.058;2023-01-30T01:09:22;2.80;41.70
326;DHT22;150;52.352;14.058;2023-01-30T01:12:16;2.70;41.90
326;DHT22;150;52.352;14.058;2023-01-30T01:14:45;2.70;41.80
326;DHT22;150;52.352;14.058;2023-01-30T01:17:22;2.70;42.00
326;DHT22;150;52.352;14.058;2023-01-30T01:20:16;2.70;42.00
326;DHT22;150;52.352;14.058;2023-01-30T01:25:19;2.70;42.00
326;DHT22;150;52.352;14.058;2023-01-30T01:27:55;2.70;41.70
326;DHT22;150;52.352;14.058;2023-01-30T01:30:35;2.70;42.10
326;DHT22;150;52.352;14.058;2023-01-30T01:33:05;2.80;41.90
326;DHT22;150;52.352;14.058;2023-01-30T01:35:39;2.80;41.40
326;DHT22;150;52.352;14.058;2023-01-30T01:38:06;2.70;41.70
326;DHT22;150;52.352;14.058;2023-01-30T01:40:58;2.60;41.70
326;DHT22;150;52.352;14.058;2023-01-30T01:43:55;2.60;42.10
326;DHT22;150;52.352;14.058;2023-01-30T01:46:54;2.60;42.00
326;DHT22;150;52.352;14.058;2023-01-30T01:49:51;2.60;42.50
326;DHT22;150;52.352;14.058;2023-01-30T01:52:33;2.60;43.00
326;DHT22;150;52.352;14.058;2023-01-30T01:55:28;2.50;42.00
326;DHT22;150;52.352;14.058;2023-01-30T01:58:26;2.60;42.00
326;DHT22;150;52.352;14.058;2023-01-30T02:01:06;2.70;42.30
326;DHT22;150;52.352;14.058;2023-01-30T02:04:02;2.70;41.50
326;DHT22;150;52.352;14.058;2023-01-30T02:06:40;2.70;41.60
326;DHT22;150;52.352;14.058;2023-01-30T02:09:21;2.80;41.30
326;DHT22;150;52.352;14.058;2023-01-30T02:12:06;2.90;40.90
326;DHT22;150;52.352;14.058;2023-01-30T02:14:42;2.90;40.90
326;DHT22;150;52.352;14.058;2023-01-30T02:17:14;2.90;40.40
326;DHT22;150;52.352;14.058;2023-01-30T02:19:47;2.90;40.50
326;DHT22;150;52.352;14.058;2023-01-30T02:22:53;2.90;40.40
326;DHT22;150;52.352;14.058;2023-01-30T02:26:09;3.00;40.40
326;DHT22;150;52.352;14.058;2023-01-30T02:28:51;2.90;40.70
326;DHT22;150;52.352;14.058;2023-01-30T02:31:46;2.90;41.00
326;DHT22;150;52.352;14.058;2023-01-30T02:37:57;2.80;42.20
326;DHT22;150;52.352;14.058;2023-01-30T02:40:40;2.80;42.70
326;DHT22;150;52.352;14.058;2023-01-30T02:43:31;2.70;44.00
326;DHT22;150;52.352;14.058;2023-01-30T02:46:03;2.70;44.80
326;DHT22;150;52.352;14.058;2023-01-30T02:48:42;2.70;45.00
326;DHT22;150;52.352;14.058;2023-01-30T02:51:19;2.70;45.60
326;DHT22;150;52.352;14.058;2023-01-30T02:53:55;2.70;45.90
326;DHT22;150;52.352;14.058;2023-01-30T02:56:22;2.70;46.10
326;DHT22;150;52.352;14.058;2023-01-30T02:59:21;2.60;46.60
326;DHT22;150;52.352;14.058;2023-01-30T03:02:27;2.70;47.60
326;DHT22;150;52.352;14.058;2023-01-30T03:05:32;2.70;47.30
326;DHT22;150;52.352;14.058;2023-01-30T03:08:23;2.70;47.10
326;DHT22;150;52.352;14.058;2023-01-30T03:11:01;2.70;47.10
326;DHT22;150;52.352;14.058;2023-01-30T03:13:45;2.80;47.40
326;DHT22;150;52.352;14.058;2023-01-30T03:16:37;2.80;46.80
326;DHT22;150;52.352;14.058;2023-01-30T03:19:06;2.90;46.90
326;DHT22;150;52.352;14.058;2023-01-30T03:21:58;3.00;46.70
326;DHT22;150;52.352;14.058;2023-01-30T03:24:36;2.90;46.00
326;DHT22;150;52.352;14.058;2023-01-30T03:27:15;2.90;46.90
326;DHT22;150;52.352;14.058;2023-01-30T03:29:42;2.90;47.20
326;DHT22;150;52.352;14.058;2023-01-30T03:32:18;2.70;48.40
326;DHT22;150;52.352;14.058;2023-01-30T03:34:44;2.70;48.30
326;DHT22;150;52.352;14.058;2023-01-30T03:37:21;2.80;48.30
326;DHT22;150;52.352;14.058;2023-01-30T03:40:02;2.70;48.20
326;DHT22;150;52.352;14.058;2023-01-30T03:42:29;2.70;48.30
326;DHT22;150;52.352;14.058;2023-01-30T03:45:23;2.70;48.40
326;DHT22;150;52.352;14.058;2023-01-30T03:47:57;2.70;48.40
326;DHT22;150;52.352;14.058;2023-01-30T03:50:24;2.70;48.30
326;DHT22;150;52.352;14.058;2023-01-30T03:56:31;2.80;48.30
326;DHT22;150;52.352;14.058;2023-01-30T03:59:13;2.80;47.80
326;DHT22;150;52.352;14.058;2023-01-30T04:01:49;2.70;46.90
326;DHT22;150;52.352;14.058;2023-01-30T04:04:30;2.70;47.70
326;DHT22;150;52.352;14.058;2023-01-30T04:08:11;2.60;48.10
326;DHT22;150;52.352;14.058;2023-01-30T04:14:16;2.70;48.20
326;DHT22;150;52.352;14.058;2023-01-30T04:16:52;2.70;48.20
326;DHT22;150;52.352;14.058;2023-01-30T04:19:24;3.30;49.00
326;DHT22;150;52.352;14.058;2023-01-30T04:22:00;2.80;48.10
326;DHT22;150;52.352;14.058;2023-01-30T04:24:36;2.80;48.30
326;DHT22;150;52.352;14.058;2023-01-30T04:27:17;2.70;48.40
326;DHT22;150;52.352;14.058;2023-01-30T04:29:54;2.60;49.80
326;DHT22;150;52.352;14.058;2023-01-30T04:32:33;2.70;50.10
326;DHT22;150;52.352;14.058;2023-01-30T04:35:11;2.80;49.50
326;DHT22;150;52.352;14.058;2023-01-30T04:37:56;2.80;49.70
326;DHT22;150;52.352;14.058;2023-01-30T04:40:36;2.70;49.80
326;DHT22;150;52.352;14.058;2023-01-30T04:46:13;2.80;50.30
326;DHT22;150;52.352;14.058;2023-01-30T04:49:08;2.80;50.40
326;DHT22;150;52.352;14.058;2023-01-30T04:52:04;2.80;50.80
326;DHT22;150;52.352;14.058;2023-01-30T04:54:41;2.80;50.70
326;DHT22;150;52.352;14.058;2023-01-30T04:57:10;2.80;51.00
326;DHT22;150;52.352;14.058;2023-01-30T05:00:06;2.70;51.50
326;DHT22;150;52.352;14.058;2023-01-30T05:02:59;2.80;51.10
326;DHT22;150;52.352;14.058;2023-01-30T05:05:28;2.80;51.40
326;DHT22;150;52.352;14.058;2023-01-30T05:08:04;2.90;51.40
326;DHT22;150;52.352;14.058;2023-01-30T05:10:40;2.90;51.10
326;DHT22;150;52.352;14.058;2023-01-30T05:13:27;2.90;51.10
326;DHT22;150;52.352;14.058;2023-01-30T05:16:02;2.90;51.60
326;DHT22;150;52.352;14.058;2023-01-30T05:18:41;2.80;51.20
326;DHT22;150;52.352;14.058;2023-01-30T05:21:09;2.80;51.80
326;DHT22;150;52.352;14.058;2023-01-30T05:23:44;2.80;52.00
326;DHT22;150;52.352;14.058;2023-01-30T05:26:18;2.80;52.10
326;DHT22;150;52.352;14.058;2023-01-30T05:28:56;2.90;52.30
326;DHT22;150;52.352;14.058;2023-01-30T05:31:23;2.80;52.70
326;DHT22;150;52.352;14.058;2023-01-30T05:34:02;2.80;52.70
326;DHT22;150;52.352;14.058;2023-01-30T05:36:42;2.70;53.20
326;DHT22;150;52.352;14.058;2023-01-30T05:39:35;2.60;54.20
326;DHT22;150;52.352;14.058;2023-01-30T05:42:35;2.70;54.50
326;DHT22;150;52.352;14.058;2023-01-30T05:46:06;2.80;55.40
326;DHT22;150;52.352;14.058;2023-01-30T05:49:05;2.70;55.30
326;DHT22;150;52.352;14.058;2023-01-30T05:51:32;2.70;56.30
326;DHT22;150;52.352;14.058;2023-01-30T05:54:26;2.60;56.70
326;DHT22;150;52.352;14.058;2023-01-30T05:57:02;2.80;56.70
326;DHT22;150;52.352;14.058;2023-01-30T05:59:29;2.80;56.70
326;DHT22;150;52.352;14.058;2023-01-30T06:02:06;2.80;57.20
326;DHT22;150;52.352;14.058;2023-01-30T06:04:34;2.80;57.20
326;DHT22;150;52.352;14.058;2023-01-30T06:07:08;2.80;57.20
326;DHT22;150;52.352;14.058;2023-01-30T06:09:44;2.80;57.60
326;DHT22;150;52.352;14.058;2023-01-30T06:12:10;2.80;57.70
326;DHT22;150;52.352;14.058;2023-01-30T06:14:44;2.80;57.30
326;DHT22;150;52.352;14.058;2023-01-30T06:17:14;2.70;58.30
326;DHT22;150;52.352;14.058;2023-01-30T06:20:22;2.70;58.20
326;DHT22;150;52.352;14.058;2023-01-30T06:22:49;2.70;58.20
326;DHT22;150;52.352;14.058;2023-01-30T06:25:43;2.80;58.30
326;DHT22;150;52.352;14.058;2023-01-30T06:28:21;2.70;58.40
326;DHT22;150;52.352;14.058;2023-01-30T06:30:57;2.80;58.40
326;DHT22;150;52.352;14.058;2023-01-30T06:33:25;2.80;58.30
326;DHT22;150;52.352;14.058;2023-01-30T06:36:02;2.80;59.00
326;DHT22;150;52.352;14.058;2023-01-30T06:38:31;2.90;58.70
326;DHT22;150;52.352;14.058;2023-01-30T06:41:06;2.90;59.00
326;DHT22;150;52.352;14.058;2023-01-30T06:43:44;3.00;58.40
326;DHT22;150;52.352;14.058;2023-01-30T06:46:31;3.10;58.00
326;DHT22;150;52.352;14.058;2023-01-30T06:49:04;3.10;58.00
326;DHT22;150;52.352;14.058;2023-01-30T06:51:41;3.10;58.50
326;DHT22;150;52.352;14.058;2023-01-30T06:56:58;3.20;58.20
326;DHT22;150;52.352;14.058;2023-01-30T06:59:25;3.20;58.10
326;DHT22;150;52.352;14.058;2023-01-30T07:01:52;3.20;57.80
326;DHT22;150;52.352;14.058;2023-01-30T07:04:26;3.10;58.10
326;DHT22;150;52.352;14.058;2023-01-30T07:07:01;3.20;58.70
326;DHT22;150;52.352;14.058;2023-01-30T07:09:28;3.20;58.70
326;DHT22;150;52.352;14.058;2023-01-30T07:12:09;3.30;58.00
326;DHT22;150;52.352;14.058;2023-01-30T07:14:45;3.40;58.00
326;DHT22;150;52.352;14.058;2023-01-30T07:17:26;3.40;58.00
326;DHT22;150;52.352;14.058;2023-01-30T07:20:02;3.40;57.80
326;DHT22;150;52.352;14.058;2023-01-30T07:22:30;3.50;58.00
326;DHT22;150;52.352;14.058;2023-01-30T07:25:10;3.50;57.90
326;DHT22;150;52.352;14.058;2023-01-30T07:28:00;3.50;57.80
326;DHT22;150;52.352;14.058;2023-01-30T07:30:28;3.50;58.00
326;DHT22;150;52.352;14.058;2023-01-30T07:33:07;3.40;58.60
326;DHT22;150;52.352;14.058;2023-01-30T07:36:00;3.50;58.80
326;DHT22;150;52.352;14.058;2023-01-30T07:38:42;3.60;58.90
326;DHT22;150;52.352;14.058;2023-01-30T07:41:18;3.60;58.90
326;DHT22;150;52.352;14.058;2023-01-30T07:43:44;3.50;58.80
326;DHT22;150;52.352;14.058;2023-01-30T07:46:22;3.60;58.90
326;DHT22;150;52.352;14.058;2023-01-30T07:48:57;3.60;58.90
326;DHT22;150;52.352;14.058;2023-01-30T07:51:24;3.60;58.90
326;DHT22;150;52.352;14.058;2023-01-30T07:53:52;3.60;59.30
326;DHT22;150;52.352;14.058;2023-01-30T07:56:28;3.70;59.70
326;DHT22;150;52.352;14.058;2023-01-30T07:59:24;3.70;59.70
326;DHT22;150;52.352;14.058;2023-01-30T08:02:02;3.80;60.20
326;DHT22;150;52.352;14.058;2023-01-30T08:04:55;3.80;60.10
326;DHT22;150;52.352;14.058;2023-01-30T08:07:22;3.80;60.70
326;DHT22;150;52.352;14.058;2023-01-30T08:12:46;4.10;60.60
326;DHT22;150;52.352;14.058;2023-01-30T08:15:20;4.20;60.70
326;DHT22;150;52.352;14.058;2023-01-30T08:17:57;4.20;59.40
326;DHT22;150;52.352;14.058;2023-01-30T08:20:39;4.30;59.60
326;DHT22;150;52.352;14.058;2023-01-30T08:23:33;4.40;59.60
326;DHT22;150;52.352;14.058;2023-01-30T08:26:01;4.40;59.50
326;DHT22;150;52.352;14.058;2023-01-30T08:28:38;4.40;59.50
326;DHT22;150;52.352;14.058;2023-01-30T08:31:16;4.50;59.60
326;DHT22;150;52.352;14.058;2023-01-30T08:33:43;4.40;59.50
326;DHT22;150;52.352;14.058;2023-01-30T08:36:19;4.40;60.20
326;DHT22;150;52.352;14.058;2023-01-30T08:38:55;4.40;59.60
326;DHT22;150;52.352;14.058;2023-01-30T08:41:22;4.50;59.60
326;DHT22;150;52.352;14.058;2023-01-30T08:44:00;4.60;59.90
326;DHT22;150;52.352;14.058;2023-01-30T08:46:37;4.60;59.60
326;DHT22;150;52.352;14.058;2023-01-30T08:49:15;4.70;59.80
326;DHT22;150;52.352;14.058;2023-01-30T08:54:37;4.70;59.00
326;DHT22;150;52.352;14.058;2023-01-30T08:57:13;4.80;59.00
326;DHT22;150;52.352;14.058;2023-01-30T08:59:57;4.90;59.00
326;DHT22;150;52.352;14.058;2023-01-30T09:02:37;4.90;58.80
326;DHT22;150;52.352;14.058;2023-01-30T09:05:18;4.80;59.00
326;DHT22;150;52.352;14.058;2023-01-30T09:07:51;4.80;59.90
326;DHT22;150;52.352;14.058;2023-01-30T09:10:18;4.90;60.00
326;DHT22;150;52.352;14.058;2023-01-30T09:12:52;5.00;59.70
326;DHT22;150;52.352;14.058;2023-01-30T09:15:25;5.00;58.70
326;DHT22;150;52.352;14.058;2023-01-30T09:18:02;5.00;58.60
326;DHT22;150;52.352;14.058;2023-01-30T09:20:37;5.40;59.70
326;DHT22;150;52.352;14.058;2023-01-30T09:23:04;5.00;58.80
326;DHT22;150;52.352;14.058;2023-01-30T09:25:59;5.10;58.70
326;DHT22;150;52.352;14.058;2023-01-30T09:28:51;5.10;58.90
326;DHT22;150;52.352;14.058;2023-01-30T09:31:29;5.30;58.70
326;DHT22;150;52.352;14.058;2023-01-30T09:33:56;5.30;58.00
326;DHT22;150;52.352;14.058;2023-01-30T09:36:31;5.20;58.10
326;DHT22;150;52.352;14.058;2023-01-30T09:38:58;5.20;58.70
326;DHT22;150;52.352;14.058;2023-01-30T09:41:51;5.30;58.80
326;DHT22;150;52.352;14.058;2023-01-30T09:44:48;5.40;59.20
326;DHT22;150;52.352;14.058;2023-01-30T09:47:35;5.60;57.70
326;DHT22;150;52.352;14.058;2023-01-30T09:50:44;5.60;56.60
326;DHT22;150;52.352;14.058;2023-01-30T09:53:41;5.40;56.50
326;DHT22;150;52.352;14.058;2023-01-30T09:56:35;5.40;57.30
326;DHT22;150;52.352;14.058;2023-01-30T09:59:16;5.50;57.90
326;DHT22;150;52.352;14.058;2023-01-30T10:05:15;5.60;57.40
326;DHT22;150;52.352;14.058;2023-01-30T10:08:15;5.70;57.30
326;DHT22;150;52.352;14.058;2023-01-30T10:11:07;5.80;57.50
326;DHT22;150;52.352;14.058;2023-01-30T10:14:24;5.90;57.60
326;DHT22;150;52.352;14.058;2023-01-30T10:20:36;6.20;56.00
326;DHT22;150;52.352;14.058;2023-01-30T10:24:20;6.30;55.80
326;DHT22;150;52.352;14.058;2023-01-30T10:26:29;7.20;57.00
326;DHT22;150;52.352;14.058;2023-01-30T10:29:07;6.70;56.20
326;DHT22;150;52.352;14.058;2023-01-30T10:32:04;6.90;55.80
326;DHT22;150;52.352;14.058;2023-01-30T10:34:49;6.80;54.50
326;DHT22;150;52.352;14.058;2023-01-30T10:37:41;6.80;54.00
326;DHT22;150;52.352;14.058;2023-01-30T10:40:21;6.70;54.30
326;DHT22;150;52.352;14.058;2023-01-30T10:43:03;6.80;55.00
326;DHT22;150;52.352;14.058;2023-01-30T10:46:03;6.80;54.30
326;DHT22;150;52.352;14.058;2023-01-30T10:49:12;6.80;54.80
326;DHT22;150;52.352;14.058;2023-01-30T10:51:55;6.80;54.60
326;DHT22;150;52.352;14.058;2023-01-30T10:54:50;6.80;54.50
326;DHT22;150;52.352;14.058;2023-01-30T10:57:30;6.90;54.70
326;DHT22;150;52.352;14.058;2023-01-30T11:00:09;6.90;54.60
326;DHT22;150;52.352;14.058;2023-01-30T11:03:07;7.00;54.80
326;DHT22;150;52.352;14.058;2023-01-30T11:05:46;7.10;54.70
326;DHT22;150;52.352;14.058;2023-01-30T11:08:45;7.30;54.30
326;DHT22;150;52.352;14.058;2023-01-30T11:11:25;7.40;52.90
326;DHT22;150;52.352;14.058;2023-01-30T11:14:03;7.30;51.90
326;DHT22;150;52.352;14.058;2023-01-30T11:16:30;7.30;51.80
326;DHT22;150;52.352;14.058;2023-01-30T11:21:47;7.40;51.40
326;DHT22;150;52.352;14.058;2023-01-30T11:24:37;7.30;50.20
326;DHT22;150;52.352;14.058;2023-01-30T11:27:18;7.30;50.10
326;DHT22;150;52.352;14.058;2023-01-30T11:30:03;7.30;49.70
326;DHT22;150;52.352;14.058;2023-01-30T11:38:36;7.50;49.10
326;DHT22;150;52.352;14.058;2023-01-30T11:41:18;7.70;47.30
326;DHT22;150;52.352;14.058;2023-01-30T11:44:09;7.70;46.20
326;DHT22;150;52.352;14.058;2023-01-30T11:46:37;7.70;44.90
326;DHT22;150;52.352;14.058;2023-01-30T11:49:14;7.70;45.80
326;DHT22;150;52.352;14.058;2023-01-30T11:52:23;7.90;44.20
326;DHT22;150;52.352;14.058;2023-01-30T11:55:22;7.80;43.20
326;DHT22;150;52.352;14.058;2023-01-30T11:58:00;7.90;44.60
326;DHT22;150;52.352;14.058;2023-01-30T12:00:40;8.00;44.30
326;DHT22;150;52.352;14.058;2023-01-30T12:03:21;8.20;43.50
326;DHT22;150;52.352;14.058;2023-01-30T12:07:02;8.20;42.50
326;DHT22;150;52.352;14.058;2023-01-30T12:09:53;8.20;42.50
326;DHT22;150;52.352;14.058;2023-01-30T12:12:49;8.80;43.20
326;DHT22;150;52.352;14.058;2023-01-30T12:15:25;8.20;42.50
326;DHT22;150;52.352;14.058;2023-01-30T12:18:12;8.20;42.70
326;DHT22;150;52.352;14.058;2023-01-30T12:21:03;8.30;42.60
326;DHT22;150;52.352;14.058;2023-01-30T12:24:05;8.30;42.60
326;DHT22;150;52.352;14.058;2023-01-30T12:26:46;8.10;42.50
326;DHT22;150;52.352;14.058;2023-01-30T12:29:31;8.00;43.80
326;DHT22;150;52.352;14.058;2023-01-30T12:32:18;8.00;44.70
326;DHT22;150;52.352;14.058;2023-01-30T12:35:15;8.40;45.90
326;DHT22;150;52.352;14.058;2023-01-30T12:41:30;8.00;44.40
326;DHT22;150;52.352;14.058;2023-01-30T12:45:00;7.90;44.00
326;DHT22;150;52.352;14.058;2023-01-30T12:48:00;7.80;43.20
326;DHT22;150;52.352;14.058;2023-01-30T12:50:56;7.70;45.10
326;DHT22;150;52.352;14.058;2023-01-30T12:53:52;7.50;46.20
326;DHT22;150;52.352;14.058;2023-01-30T12:56:51;7.40;47.90
326;DHT22;150;52.352;14.058;2023-01-30T12:59:51;7.20;48.70
326;DHT22;150;52.352;14.058;2023-01-30T13:05:42;7.10;50.30
326;DHT22;150;52.352;14.058;2023-01-30T13:08:58;7.10;49.40
326;DHT22;150;52.352;14.058;2023-01-30T13:12:11;7.10;50.00
326;DHT22;150;52.352;14.058;2023-01-30T13:14:50;7.30;49.80
326;DHT22;150;52.352;14.058;2023-01-30T13:21:19;7.20;49.30
326;DHT22;150;52.352;14.058;2023-01-30T13:28:28;7.50;49.90
326;DHT22;150;52.352;14.058;2023-01-30T13:41:44;7.30;48.30
326;DHT22;150;52.352;14.058;2023-01-30T13:44:42;7.40;47.50
326;DHT22;150;52.352;14.058;2023-01-30T13:47:53;7.40;47.90
326;DHT22;150;52.352;14.058;2023-01-30T13:51:26;7.40;48.30
326;DHT22;150;52.352;14.058;2023-01-30T14:09:26;7.10;43.00
326;DHT22;150;52.352;14.058;2023-01-30T14:12:24;7.10;43.60
326;DHT22;150;52.352;14.058;2023-01-30T14:15:26;7.10;43.70
326;DHT22;150;52.352;14.058;2023-01-30T14:18:26;7.10;43.10
326;DHT22;150;52.352;14.058;2023-01-30T14:21:18;7.20;43.20
326;DHT22;150;52.352;14.058;2023-01-30T14:23:59;7.00;43.80
326;DHT22;150;52.352;14.058;2023-01-30T14:30:45;6.90;46.50
326;DHT22;150;52.352;14.058;2023-01-30T14:34:02;6.80;48.30
326;DHT22;150;52.352;14.058;2023-01-30T14:36:55;6.70;49.50
326;DHT22;150;52.352;14.058;2023-01-30T14:39:39;6.50;51.30
326;DHT22;150;52.352;14.058;2023-01-30T14:42:19;6.20;52.40
326;DHT22;150;52.352;14.058;2023-01-30T14:45:12;6.20;53.00
326;DHT22;150;52.352;14.058;2023-01-30T14:47:41;6.00;53.90
326;DHT22;150;52.352;14.058;2023-01-30T14:50:19;6.00;55.50
326;DHT22;150;52.352;14.058;2023-01-30T14:52:57;5.90;55.70
326;DHT22;150;52.352;14.058;2023-01-30T14:55:53;5.80;56.60
326;DHT22;150;52.352;14.058;2023-01-30T14:59:25;5.90;56.90
326;DHT22;150;52.352;14.058;2023-01-30T15:02:54;6.00;56.90
326;DHT22;150;52.352;14.058;2023-01-30T15:05:37;6.10;56.70
326;DHT22;150;52.352;14.058;2023-01-30T15:08:51;6.10;56.30
326;DHT22;150;52.352;14.058;2023-01-30T15:11:38;6.10;56.10
326;DHT22;150;52.352;14.058;2023-01-30T15:17:45;6.10;55.60
326;DHT22;150;52.352;14.058;2023-01-30T15:25:37;6.10;55.60
326;DHT22;150;52.352;14.058;2023-01-30T15:27:26;6.00;54.90
326;DHT22;150;52.352;14.058;2023-01-30T15:30:24;5.90;54.80
326;DHT22;150;52.352;14.058;2023-01-30T15:33:21;5.90;54.80
326;DHT22;150;52.352;14.058;2023-01-30T15:36:36;5.80;55.20
326;DHT22;150;52.352;14.058;2023-01-30T15:39:19;5.90;55.50
326;DHT22;150;52.352;14.058;2023-01-30T15:42:03;5.90;55.90
326;DHT22;150;52.352;14.058;2023-01-30T15:44:55;6.00;56.00
326;DHT22;150;52.352;14.058;2023-01-30T15:51:21;6.00;54.80
326;DHT22;150;52.352;14.058;2023-01-30T15:54:01;5.90;54.00
326;DHT22;150;52.352;14.058;2023-01-30T15:56:40;5.90;54.30
326;DHT22;150;52.352;14.058;2023-01-30T16:05:16;5.70;54.10
326;DHT22;150;52.352;14.058;2023-01-30T16:07:57;5.60;54.30
326;DHT22;150;52.352;14.058;2023-01-30T16:10:33;5.50;54.30
326;DHT22;150;52.352;14.058;2023-01-30T16:13:18;5.50;54.30
326;DHT22;150;52.352;14.058;2023-01-30T16:16:00;5.50;54.30
326;DHT22;150;52.352;14.058;2023-01-30T16:19:28;5.50;53.70
326;DHT22;150;52.352;14.058;2023-01-30T16:22:25;5.40;53.70
326;DHT22;150;52.352;14.058;2023-01-30T16:25:02;5.30;53.60
326;DHT22;150;52.352;14.058;2023-01-30T16:28:02;5.30;53.80
326;DHT22;150;52.352;14.058;2023-01-30T16:30:38;5.30;54.30
326;DHT22;150;52.352;14.058;2023-01-30T16:33:07;5.30;54.90
326;DHT22;150;52.352;14.058;2023-01-30T16:35:57;5.30;54.50
326;DHT22;150;52.352;14.058;2023-01-30T16:38:42;5.30;54.60
326;DHT22;150;52.352;14.058;2023-01-30T16:41:33;5.30;55.00
326;DHT22;150;52.352;14.058;2023-01-30T16:44:22;5.30;54.70
326;DHT22;150;52.352;14.058;2023-01-30T16:47:31;5.40;54.60
326;DHT22;150;52.352;14.058;2023-01-30T16:50:29;5.30;54.30
326;DHT22;150;52.352;14.058;2023-01-30T16:53:14;5.30;54.70
326;DHT22;150;52.352;14.058;2023-01-30T16:56:05;5.30;55.60
326;DHT22;150;52.352;14.058;2023-01-30T16:58:48;5.30;54.90
326;DHT22;150;52.352;14.058;2023-01-30T17:01:40;5.40;54.60
326;DHT22;150;52.352;14.058;2023-01-30T17:04:25;5.60;54.50
326;DHT22;150;52.352;14.058;2023-01-30T17:07:36;5.60;54.10
326;DHT22;150;52.352;14.058;2023-01-30T17:17:06;5.80;54.80
326;DHT22;150;52.352;14.058;2023-01-30T17:19:47;5.80;54.60
326;DHT22;150;52.352;14.058;2023-01-30T17:25:26;5.80;54.60
326;DHT22;150;52.352;14.058;2023-01-30T17:25:42;5.90;55.20
326;DHT22;150;52.352;14.058;2023-01-30T17:28:19;5.80;54.70
326;DHT22;150;52.352;14.058;2023-01-30T17:34:13;5.80;55.40
326;DHT22;150;52.352;14.058;2023-01-30T17:36:52;5.90;55.50
326;DHT22;150;52.352;14.058;2023-01-30T17:39:27;5.80;55.80
326;DHT22;150;52.352;14.058;2023-01-30T17:41:55;5.80;55.80
326;DHT22;150;52.352;14.058;2023-01-30T17:44:50;5.80;56.00
326;DHT22;150;52.352;14.058;2023-01-30T17:48:03;5.80;55.80
326;DHT22;150;52.352;14.058;2023-01-30T17:50:49;5.90;55.90
326;DHT22;150;52.352;14.058;2023-01-30T17:53:44;5.90;55.90
326;DHT22;150;52.352;14.058;2023-01-30T17:56:58;5.90;55.40
326;DHT22;150;52.352;14.058;2023-01-30T17:59:34;6.00;55.30
326;DHT22;150;52.352;14.058;2023-01-30T18:02:17;6.00;54.60
326;DHT22;150;52.352;14.058;2023-01-30T18:05:29;6.10;54.10
326;DHT22;150;52.352;14.058;2023-01-30T18:08:22;6.20;54.00
326;DHT22;150;52.352;14.058;2023-01-30T18:11:07;6.60;53.80
326;DHT22;150;52.352;14.058;2023-01-30T18:13:48;6.20;53.30
326;DHT22;150;52.352;14.058;2023-01-30T18:16:29;6.20;53.20
326;DHT22;150;52.352;14.058;2023-01-30T18:19:42;6.20;53.40
326;DHT22;150;52.352;14.058;2023-01-30T18:22:19;6.10;53.80
326;DHT22;150;52.352;14.058;2023-01-30T18:25:01;6.60;53.40
326;DHT22;150;52.352;14.058;2023-01-30T18:28:07;6.00;53.20
326;DHT22;150;52.352;14.058;2023-01-30T18:30:38;6.20;53.60
326;DHT22;150;52.352;14.058;2023-01-30T18:33:20;6.20;52.60
326;DHT22;150;52.352;14.058;2023-01-30T18:36:14;6.20;52.00
326;DHT22;150;52.352;14.058;2023-01-30T18:39:11;6.30;52.60
326;DHT22;150;52.352;14.058;2023-01-30T18:42:10;6.40;51.50
326;DHT22;150;52.352;14.058;2023-01-30T18:44:46;6.30;50.20
326;DHT22;150;52.352;14.058;2023-01-30T18:50:25;6.30;50.30
326;DHT22;150;52.352;14.058;2023-01-30T18:52:52;6.40;50.20
326;DHT22;150;52.352;14.058;2023-01-30T18:55:38;6.30;50.60
326;DHT22;150;52.352;14.058;2023-01-30T18:58:41;6.30;49.80
326;DHT22;150;52.352;14.058;2023-01-30T19:01:23;6.40;49.50
326;DHT22;150;52.352;14.058;2023-01-30T19:04:14;6.50;49.50
326;DHT22;150;52.352;14.058;2023-01-30T19:06:42;6.50;48.60
326;DHT22;150;52.352;14.058;2023-01-30T19:09:15;6.50;48.00
326;DHT22;150;52.352;14.058;2023-01-30T19:11:43;6.60;47.40
326;DHT22;150;52.352;14.058;2023-01-30T19:17:14;6.60;46.40
326;DHT22;150;52.352;14.058;2023-01-30T19:19:41;6.60;46.60
326;DHT22;150;52.352;14.058;2023-01-30T19:22:19;6.70;46.50
326;DHT22;150;52.352;14.058;2023-01-30T19:24:55;6.60;44.40
326;DHT22;150;52.352;14.058;2023-01-30T19:27:34;6.70;44.50
326;DHT22;150;52.352;14.058;2023-01-30T19:30:01;6.80;43.80
326;DHT22;150;52.352;14.058;2023-01-30T19:32:36;6.80;42.90
326;DHT22;150;52.352;14.058;2023-01-30T19:35:03;6.70;43.20
326;DHT22;150;52.352;14.058;2023-01-30T19:37:52;6.80;43.70
326;DHT22;150;52.352;14.058;2023-01-30T19:40:22;6.80;43.20
326;DHT22;150;52.352;14.058;2023-01-30T19:43:30;6.80;42.70
326;DHT22;150;52.352;14.058;2023-01-30T19:45:58;6.80;41.40
326;DHT22;150;52.352;14.058;2023-01-30T19:49:14;6.80;42.00
326;DHT22;150;52.352;14.058;2023-01-30T19:51:52;6.80;40.90
326;DHT22;150;52.352;14.058;2023-01-30T19:54:30;6.80;41.40
326;DHT22;150;52.352;14.058;2023-01-30T19:57:05;6.80;41.30
326;DHT22;150;52.352;14.058;2023-01-30T19:59:47;6.80;41.40
326;DHT22;150;52.352;14.058;2023-01-30T20:02:14;6.70;40.30
326;DHT22;150;52.352;14.058;2023-01-30T20:05:07;6.70;40.50
326;DHT22;150;52.352;14.058;2023-01-30T20:11:07;6.70;39.50
326;DHT22;150;52.352;14.058;2023-01-30T20:17:48;6.80;39.00
326;DHT22;150;52.352;14.058;2023-01-30T20:41:07;6.60;37.90
326;DHT22;150;52.352;14.058;2023-01-30T20:43:36;6.60;38.00
326;DHT22;150;52.352;14.058;2023-01-30T20:46:30;6.60;38.00
326;DHT22;150;52.352;14.058;2023-01-30T20:49:23;6.60;37.60
326;DHT22;150;52.352;14.058;2023-01-30T20:51:51;6.60;38.10
326;DHT22;150;52.352;14.058;2023-01-30T20:54:24;6.50;37.40